createdAt,value
2018-08-04T00:01:16.627Z,11.73
2018-08-04T00:03:49.327Z,12.60
2018-08-04T00:06:18.067Z,11.73
2018-08-04T00:08:46.890Z,11.40
2018-08-04T00:11:15.767Z,12.83
2018-08-04T00:13:44.546Z,12.40
2018-08-04T00:16:13.351Z,11.40
2018-08-04T00:18:42.223Z,12.77
2018-08-04T00:21:15.726Z,12.60
2018-08-04T00:23:44.522Z,12.03
2018-08-04T00:26:16.828Z,11.77
2018-08-04T00:28:47.702Z,14.23
2018-08-04T00:31:17.615Z,12.90
2018-08-04T00:33:46.504Z,13.17
2018-08-04T00:36:16.342Z,12.57
2018-08-04T00:38:47.099Z,13.20
2018-08-04T00:41:16.874Z,12.93
2018-08-04T00:43:46.707Z,12.50
2018-08-04T00:46:19.690Z,13.27
2018-08-04T00:48:56.742Z,13.47
2018-08-04T00:51:36.408Z,14.17
2018-08-04T00:54:15.302Z,13.43
2018-08-04T00:56:48.742Z,13.67
2018-08-04T00:59:33.857Z,14.10
2018-08-04T01:02:13.175Z,14.10
2018-08-04T01:04:43.035Z,15.30
2018-08-04T01:07:25.152Z,16.20
2018-08-04T01:10:06.602Z,15.30
2018-08-04T01:12:38.967Z,15.60
2018-08-04T01:15:11.730Z,15.90
2018-08-04T01:17:40.609Z,15.60
2018-08-04T01:20:12.526Z,15.00
2018-08-04T01:22:42.342Z,15.57
2018-08-04T01:25:11.191Z,15.40
2018-08-04T01:27:42.079Z,15.20
2018-08-04T01:30:11.030Z,16.40
2018-08-04T01:32:39.906Z,14.27
2018-08-04T01:35:08.734Z,15.10
2018-08-04T01:37:38.570Z,14.60
2018-08-04T01:40:07.499Z,14.23
2018-08-04T01:42:39.654Z,15.00
2018-08-04T01:45:11.027Z,15.13
2018-08-04T01:47:39.830Z,15.60
2018-08-04T01:50:12.051Z,13.90
2018-08-04T01:52:40.951Z,14.23
2018-08-04T01:55:11.207Z,14.30
2018-08-04T01:57:40.178Z,14.60
2018-08-04T02:00:09.399Z,14.40
2018-08-04T02:02:41.774Z,16.07
2018-08-04T02:05:14.611Z,14.27
2018-08-04T02:07:46.783Z,15.43
2018-08-04T02:10:15.730Z,14.37
2018-08-04T02:12:45.581Z,15.83
2018-08-04T02:15:14.494Z,15.53
2018-08-04T02:17:46.930Z,15.50
2018-08-04T02:20:17.898Z,15.87
2018-08-04T02:22:46.808Z,15.47
2018-08-04T02:25:16.722Z,16.13
2018-08-04T02:27:45.599Z,15.33
2018-08-04T02:30:14.483Z,15.37
2018-08-04T02:32:43.363Z,14.57
2018-08-04T02:35:14.126Z,14.67
2018-08-04T02:37:42.986Z,16.33
2018-08-04T02:40:11.898Z,15.90
2018-08-04T02:42:40.869Z,15.90
2018-08-04T02:45:10.818Z,16.13
2018-08-04T02:47:39.750Z,16.73
2018-08-04T02:50:09.282Z,16.70
2018-08-04T02:52:40.130Z,15.40
2018-08-04T02:55:09.621Z,17.57
2018-08-04T02:57:38.498Z,15.97
2018-08-04T03:00:07.486Z,16.77
2018-08-04T03:02:37.187Z,15.90
2018-08-04T03:05:06.650Z,17.33
2018-08-04T03:07:35.535Z,18.77
2018-08-04T03:10:10.250Z,18.00
2018-08-04T03:12:39.134Z,17.30
2018-08-04T03:15:08.127Z,18.00
2018-08-04T03:17:38.068Z,17.67
2018-08-04T03:20:08.438Z,16.87
2018-08-04T03:22:37.593Z,17.63
2018-08-04T03:25:08.566Z,18.80
2018-08-04T03:27:41.098Z,16.80
2018-08-04T03:30:11.967Z,17.70
2018-08-04T03:32:41.810Z,17.13
2018-08-04T03:35:10.834Z,18.33
2018-08-04T03:37:40.750Z,16.77
2018-08-04T03:40:10.730Z,16.60
2018-08-04T03:42:40.067Z,18.80
2018-08-04T03:45:10.016Z,18.13
2018-08-04T03:47:38.845Z,19.53
2018-08-04T03:50:11.238Z,18.07
2018-08-04T03:52:40.245Z,18.07
2018-08-04T03:55:09.045Z,17.60
2018-08-04T03:57:37.945Z,18.57
2018-08-04T04:00:07.370Z,18.00
2018-08-04T04:02:35.914Z,17.90
2018-08-04T04:05:04.718Z,18.07
2018-08-04T04:07:35.622Z,16.53
2018-08-04T04:10:05.489Z,17.17
2018-08-04T04:12:34.287Z,16.97
2018-08-04T04:15:03.129Z,19.10
2018-08-04T04:17:43.922Z,17.80
2018-08-04T04:20:13.918Z,16.97
2018-08-04T04:22:43.795Z,18.53
2018-08-04T04:25:12.862Z,17.80
2018-08-04T04:27:41.918Z,19.03
2018-08-04T04:30:10.854Z,18.50
2018-08-04T04:32:40.630Z,19.50
2018-08-04T04:35:13.158Z,19.80
2018-08-04T04:37:42.666Z,19.23
2018-08-04T04:40:15.242Z,20.43
2018-08-04T04:42:45.038Z,19.80
2018-08-04T04:45:14.341Z,17.80
2018-08-04T04:47:43.232Z,19.13
2018-08-04T04:50:12.218Z,18.87
2018-08-04T04:52:41.138Z,18.43
2018-08-04T04:55:12.022Z,19.40
2018-08-04T04:57:40.569Z,18.57
2018-08-04T05:00:09.330Z,18.40
2018-08-04T05:02:41.778Z,16.50
2018-08-04T05:05:10.699Z,19.27
2018-08-04T05:07:40.646Z,19.10
2018-08-04T05:10:09.511Z,17.00
2018-08-04T05:12:43.216Z,17.37
2018-08-04T05:15:12.094Z,17.27
2018-08-04T05:17:42.834Z,18.10
2018-08-04T05:20:11.754Z,17.80
2018-08-04T05:22:40.567Z,16.47
2018-08-04T05:25:13.082Z,17.40
2018-08-04T05:27:43.942Z,19.10
2018-08-04T05:30:12.802Z,19.23
2018-08-04T05:32:41.707Z,16.80
2018-08-04T05:35:11.619Z,18.17
2018-08-04T05:37:42.302Z,16.83
2018-08-04T05:40:12.214Z,17.17
2018-08-04T05:42:41.042Z,17.47
2018-08-04T05:45:11.914Z,17.23
2018-08-04T05:47:40.690Z,17.93
2018-08-04T05:50:10.588Z,18.37
2018-08-04T05:52:40.402Z,17.90
2018-08-04T05:55:09.271Z,16.63
2018-08-04T05:57:38.234Z,17.37
2018-08-04T06:00:08.335Z,19.40
2018-08-04T06:02:37.145Z,18.93
2018-08-04T06:05:06.512Z,17.50
2018-08-04T06:07:35.350Z,17.57
2018-08-04T06:10:04.574Z,17.47
2018-08-04T06:12:34.714Z,17.43
2018-08-04T06:15:04.642Z,18.23
2018-08-04T06:17:34.519Z,16.73
2018-08-04T06:20:04.475Z,17.00
2018-08-04T06:22:36.523Z,18.20
2018-08-04T06:25:05.538Z,17.63
2018-08-04T06:27:34.302Z,17.60
2018-08-04T06:30:03.083Z,15.30
2018-08-04T06:32:33.918Z,15.07
2018-08-04T06:35:04.732Z,15.00
2018-08-04T06:37:33.718Z,14.37
2018-08-04T06:40:02.598Z,14.07
2018-08-04T06:42:32.375Z,13.37
2018-08-04T06:45:01.216Z,14.33
2018-08-04T06:47:30.107Z,12.80
2018-08-04T06:49:59.019Z,13.50
2018-08-04T06:52:27.882Z,13.10
2018-08-04T06:54:56.782Z,12.73
2018-08-04T06:57:26.566Z,13.50
2018-08-04T06:59:55.350Z,13.47
2018-08-04T07:02:24.126Z,13.33
2018-08-04T07:04:52.922Z,12.10
2018-08-04T07:07:22.781Z,12.63
2018-08-04T07:09:51.637Z,12.60
2018-08-04T07:12:21.521Z,12.57
2018-08-04T07:14:50.326Z,12.80
2018-08-04T07:17:19.106Z,12.17
2018-08-04T07:19:48.930Z,12.90
2018-08-04T07:22:17.734Z,12.50
2018-08-04T07:24:47.482Z,13.17
2018-08-04T07:27:16.370Z,13.87
2018-08-04T07:29:45.314Z,13.00
2018-08-04T07:32:14.298Z,12.67
2018-08-04T07:34:43.218Z,12.60
2018-08-04T07:37:12.998Z,12.37
2018-08-04T07:39:45.150Z,12.20
2018-08-04T07:42:13.906Z,9.73
2018-08-04T07:44:42.750Z,10.00
2018-08-04T07:47:16.426Z,11.10
2018-08-04T07:49:52.953Z,10.90
2018-08-04T07:52:22.926Z,11.90
2018-08-04T07:55:03.600Z,11.50
2018-08-04T07:57:33.630Z,10.40
2018-08-04T08:00:04.246Z,9.37
2018-08-04T08:02:33.734Z,10.07
2018-08-04T08:05:06.701Z,9.37
2018-08-04T08:07:41.084Z,9.57
2018-08-04T08:10:13.370Z,10.40
2018-08-04T08:12:47.829Z,11.27
2018-08-04T08:15:16.905Z,11.13
2018-08-04T08:17:45.730Z,11.37
2018-08-04T08:20:14.554Z,9.73
2018-08-04T08:22:46.890Z,10.80
2018-08-04T08:25:16.557Z,11.80
2018-08-04T08:27:50.682Z,10.70
2018-08-04T08:30:19.740Z,10.60
2018-08-04T08:32:49.546Z,9.90
2018-08-04T08:35:19.758Z,10.23
2018-08-04T08:37:50.588Z,10.70
2018-08-04T08:40:20.377Z,10.90
2018-08-04T08:42:52.210Z,10.20
2018-08-04T08:45:38.067Z,10.10
2018-08-04T08:48:06.954Z,11.30
2018-08-04T08:50:36.690Z,9.20
2018-08-04T08:53:06.599Z,9.57
2018-08-04T08:55:37.374Z,9.77
2018-08-04T08:58:07.182Z,9.47
2018-08-04T09:00:35.922Z,9.83
2018-08-04T09:03:07.286Z,12.97
2018-08-04T09:05:41.258Z,9.10
2018-08-04T09:08:15.262Z,10.73
2018-08-04T09:10:51.438Z,10.57
2018-08-04T09:13:26.082Z,9.77
2018-08-04T09:16:00.582Z,9.50
2018-08-04T09:18:29.338Z,10.30
2018-08-04T09:21:10.442Z,10.13
2018-08-04T09:23:39.345Z,9.40
2018-08-04T09:26:08.221Z,9.67
2018-08-04T09:28:40.550Z,9.10
2018-08-04T09:31:09.358Z,8.50
2018-08-04T09:33:48.601Z,8.77
2018-08-04T09:36:17.469Z,8.23
2018-08-04T09:38:46.411Z,9.77
2018-08-04T09:41:16.282Z,9.60
2018-08-04T09:43:45.117Z,9.10
2018-08-04T09:46:13.973Z,8.40
2018-08-04T09:48:46.410Z,8.30
2018-08-04T09:51:15.249Z,8.13
2018-08-04T09:53:44.266Z,8.30
2018-08-04T09:56:14.157Z,7.30
2018-08-04T09:58:47.110Z,8.43
2018-08-04T10:01:21.398Z,8.83
2018-08-04T10:03:51.284Z,9.00
2018-08-04T10:06:20.438Z,8.77
2018-08-04T10:08:49.294Z,8.40
2018-08-04T10:11:18.143Z,8.00
2018-08-04T10:13:47.982Z,7.40
2018-08-04T10:16:16.874Z,7.40
2018-08-04T10:18:51.454Z,7.00
2018-08-04T10:21:21.334Z,8.23
2018-08-04T10:23:50.198Z,7.17
2018-08-04T10:26:19.060Z,7.13
2018-08-04T10:28:51.458Z,8.27
2018-08-04T10:31:20.362Z,7.80
2018-08-04T10:33:49.190Z,7.60
2018-08-04T10:36:17.997Z,7.73
2018-08-04T10:38:50.881Z,7.40
2018-08-04T10:41:19.453Z,7.47
2018-08-04T10:43:48.278Z,8.10
2018-08-04T10:46:17.157Z,8.80
2018-08-04T10:48:46.942Z,7.87
2018-08-04T10:51:15.730Z,47.10
2018-08-04T10:53:45.310Z,7.53
2018-08-04T10:56:15.018Z,7.50
2018-08-04T10:58:43.881Z,7.70
2018-08-04T11:01:12.778Z,7.83
2018-08-04T11:03:43.608Z,7.57
2018-08-04T11:06:12.438Z,8.67
2018-08-04T11:08:43.395Z,8.07
2018-08-04T11:11:12.194Z,8.00
2018-08-04T11:13:41.882Z,7.10
2018-08-04T11:16:10.301Z,7.43
2018-08-04T11:18:39.062Z,7.73
2018-08-04T11:21:11.334Z,8.27
2018-08-04T11:23:42.237Z,8.00
2018-08-04T11:26:11.026Z,7.70
2018-08-04T11:28:46.538Z,8.10
2018-08-04T11:31:15.390Z,7.90
2018-08-04T11:33:50.351Z,7.87
2018-08-04T11:36:20.210Z,9.07
2018-08-04T11:38:52.670Z,7.70
2018-08-04T11:41:24.529Z,7.40
2018-08-04T11:43:55.445Z,7.10
2018-08-04T11:46:25.297Z,8.30
2018-08-04T11:48:54.080Z,7.80
2018-08-04T11:51:22.925Z,7.50
2018-08-04T11:53:51.854Z,7.70
2018-08-04T11:56:21.581Z,7.53
2018-08-04T11:58:51.713Z,7.97
2018-08-04T12:01:20.489Z,8.00
2018-08-04T12:03:54.721Z,8.43
2018-08-04T12:06:24.525Z,8.30
2018-08-04T12:08:53.289Z,8.37
2018-08-04T12:11:24.062Z,9.00
2018-08-04T12:13:56.637Z,8.90
2018-08-04T12:16:29.473Z,8.70
2018-08-04T12:18:59.293Z,8.70
2018-08-04T12:21:30.169Z,8.33
2018-08-04T12:23:59.963Z,8.23
2018-08-04T12:26:33.876Z,7.33
2018-08-04T12:29:04.705Z,8.20
2018-08-04T12:31:35.537Z,8.60
2018-08-04T12:34:08.829Z,8.53
2018-08-04T12:36:39.609Z,8.33
2018-08-04T12:39:09.478Z,8.03
2018-08-04T12:41:39.141Z,7.93
2018-08-04T12:44:09.399Z,8.23
2018-08-04T12:46:44.155Z,9.00
2018-08-04T12:49:12.729Z,8.90
2018-08-04T12:51:54.749Z,9.93
2018-08-04T12:54:30.252Z,9.80
2018-08-04T12:56:59.161Z,9.57
2018-08-04T12:59:37.996Z,9.83
2018-08-04T13:02:06.765Z,9.27
2018-08-04T13:04:37.477Z,9.80
2018-08-04T13:07:06.337Z,9.30
2018-08-04T13:09:35.109Z,9.63
2018-08-04T13:12:04.004Z,9.53
2018-08-04T13:14:32.721Z,8.80
2018-08-04T13:17:01.457Z,9.50
2018-08-04T13:19:31.109Z,10.30
2018-08-04T13:21:59.765Z,9.07
2018-08-04T13:24:28.285Z,10.00
2018-08-04T13:26:56.969Z,10.97
2018-08-04T13:29:25.775Z,9.93
2018-08-04T13:31:54.497Z,9.57
2018-08-04T13:34:23.281Z,9.93
2018-08-04T13:36:52.119Z,9.30
2018-08-04T13:39:24.113Z,8.80
2018-08-04T13:41:57.046Z,9.97
2018-08-04T13:44:37.722Z,9.70
2018-08-04T13:47:06.897Z,8.77
2018-08-04T13:49:35.633Z,9.43
2018-08-04T13:52:07.517Z,8.90
2018-08-04T13:54:36.290Z,10.30
2018-08-04T13:57:05.141Z,9.63
2018-08-04T13:59:34.217Z,9.30
2018-08-04T14:02:03.077Z,9.50
2018-08-04T14:04:34.757Z,9.50
2018-08-04T14:07:08.829Z,9.67
2018-08-04T14:09:38.721Z,9.87
2018-08-04T14:12:08.518Z,10.13
2018-08-04T14:14:37.253Z,10.80
2018-08-04T14:17:07.137Z,10.63
2018-08-04T14:19:42.649Z,11.60
2018-08-04T14:22:12.605Z,10.83
2018-08-04T14:24:45.110Z,11.80
2018-08-04T14:27:14.062Z,11.27
2018-08-04T14:29:44.921Z,10.70
2018-08-04T14:32:14.805Z,11.30
2018-08-04T14:34:43.646Z,10.80
2018-08-04T14:37:14.469Z,11.40
2018-08-04T14:39:46.661Z,11.07
2018-08-04T14:42:15.479Z,12.00
2018-08-04T14:44:45.267Z,12.13
2018-08-04T14:47:17.749Z,11.97
2018-08-04T14:49:46.598Z,13.23
2018-08-04T14:52:20.609Z,12.10
2018-08-04T14:54:54.500Z,12.50
2018-08-04T14:57:30.726Z,12.60
2018-08-04T15:00:00.517Z,12.40
2018-08-04T15:02:29.317Z,12.57
2018-08-04T15:04:58.187Z,11.70
2018-08-04T15:07:34.209Z,12.40
2018-08-04T15:10:03.035Z,11.50
2018-08-04T15:12:31.793Z,12.23
2018-08-04T15:15:05.365Z,12.20
2018-08-04T15:17:35.217Z,11.60
2018-08-04T15:20:04.341Z,11.57
2018-08-04T15:22:33.193Z,10.53
2018-08-04T15:25:02.401Z,10.17
2018-08-04T15:27:32.901Z,9.80
2018-08-04T15:30:01.771Z,10.47
2018-08-04T15:32:32.528Z,11.00
2018-08-04T15:35:02.265Z,9.77
2018-08-04T15:37:34.736Z,10.33
2018-08-04T15:40:03.548Z,10.03
2018-08-04T15:42:35.483Z,10.40
2018-08-04T15:45:06.100Z,10.80
2018-08-04T15:47:38.581Z,10.90
2018-08-04T15:50:09.428Z,11.07
2018-08-04T15:52:43.748Z,10.47
2018-08-04T15:55:19.069Z,11.50
2018-08-04T15:57:49.594Z,11.67
2018-08-04T16:00:18.337Z,11.00
2018-08-04T16:02:47.189Z,11.10
2018-08-04T16:05:15.982Z,11.37
2018-08-04T16:07:44.749Z,11.37
2018-08-04T16:10:13.569Z,10.90
2018-08-04T16:12:44.388Z,12.17
2018-08-04T16:15:13.182Z,10.60
2018-08-04T16:17:42.898Z,21.07
2018-08-04T16:20:15.398Z,11.17
2018-08-04T16:22:44.341Z,11.20
2018-08-04T16:25:14.029Z,11.47
2018-08-04T16:27:43.132Z,9.90
2018-08-04T16:30:12.945Z,10.83
2018-08-04T16:32:43.860Z,12.60
2018-08-04T16:35:13.573Z,13.50
2018-08-04T16:37:42.288Z,11.97
2018-08-04T16:40:11.076Z,10.87
2018-08-04T16:42:39.860Z,10.87
2018-08-04T16:45:08.589Z,9.93
2018-08-04T16:47:37.348Z,10.77
2018-08-04T16:50:10.528Z,9.90
2018-08-04T16:52:39.300Z,10.43
2018-08-04T16:55:13.209Z,10.53
2018-08-04T16:57:42.001Z,11.30
2018-08-04T17:00:14.184Z,9.73
2018-08-04T17:02:42.988Z,10.53
2018-08-04T17:05:12.944Z,10.40
2018-08-04T17:07:41.777Z,9.60
2018-08-04T17:10:13.677Z,9.87
2018-08-04T17:12:42.569Z,9.80
2018-08-04T17:15:11.457Z,9.43
2018-08-04T17:17:40.205Z,9.50
2018-08-04T17:20:12.201Z,8.83
2018-08-04T17:22:41.073Z,9.20
2018-08-04T17:25:09.853Z,9.30
2018-08-04T17:27:38.676Z,9.43
2018-08-04T17:30:07.517Z,9.47
2018-08-04T17:32:40.981Z,8.40
2018-08-04T17:35:09.796Z,9.33
2018-08-04T17:37:40.590Z,8.43
2018-08-04T17:40:09.317Z,9.73
2018-08-04T17:42:44.026Z,9.43
2018-08-04T17:45:14.817Z,8.87
2018-08-04T17:47:43.561Z,8.60
2018-08-04T17:50:13.297Z,9.60
2018-08-04T17:52:42.157Z,9.13
2018-08-04T17:55:12.937Z,9.63
2018-08-04T17:57:41.804Z,8.83
2018-08-04T18:00:14.180Z,8.83
2018-08-04T18:02:42.972Z,8.33
2018-08-04T18:05:13.773Z,8.87
2018-08-04T18:07:47.074Z,9.40
2018-08-04T18:10:17.808Z,8.73
2018-08-04T18:12:52.400Z,11.07
2018-08-04T18:15:21.253Z,9.37
2018-08-04T18:17:55.844Z,9.70
2018-08-04T18:20:34.528Z,8.70
2018-08-04T18:23:03.380Z,9.67
2018-08-04T18:25:32.144Z,9.40
2018-08-04T18:28:01.089Z,10.30
2018-08-04T18:30:30.864Z,10.10
2018-08-04T18:32:59.600Z,10.33
2018-08-04T18:35:28.488Z,10.00
2018-08-04T18:37:59.306Z,10.30
2018-08-04T18:40:29.008Z,10.70
2018-08-04T18:43:02.024Z,10.20
2018-08-04T18:45:30.697Z,10.80
2018-08-04T18:48:03.849Z,10.30
2018-08-04T18:50:32.540Z,11.17
2018-08-04T18:53:01.331Z,11.93
2018-08-04T18:55:30.096Z,11.80
2018-08-04T18:57:58.896Z,11.90
2018-08-04T19:00:28.704Z,11.40
2018-08-04T19:02:57.204Z,12.13
2018-08-04T19:05:26.920Z,12.87
2018-08-04T19:07:56.740Z,12.30
2018-08-04T19:10:28.393Z,13.50
2018-08-04T19:12:57.193Z,12.17
2018-08-04T19:15:25.736Z,12.20
2018-08-04T19:17:55.480Z,13.37
2018-08-04T19:20:25.245Z,13.17
2018-08-04T19:22:55.064Z,13.07
2018-08-04T19:25:26.948Z,13.57
2018-08-04T19:27:55.785Z,14.37
2018-08-04T19:30:25.544Z,12.73
2018-08-04T19:32:54.357Z,12.90
2018-08-04T19:35:28.652Z,13.60
2018-08-04T19:38:12.104Z,14.23
2018-08-04T19:40:40.868Z,12.40
2018-08-04T19:43:09.653Z,14.30
2018-08-04T19:45:41.493Z,14.67
2018-08-04T19:48:11.354Z,14.57
2018-08-04T19:50:40.109Z,13.57
2018-08-04T19:53:08.924Z,14.83
2018-08-04T19:55:38.693Z,14.90
2018-08-04T19:58:07.521Z,15.90
2018-08-04T20:00:36.284Z,14.90
2018-08-04T20:03:05.265Z,17.00
2018-08-04T20:05:34.044Z,16.10
2018-08-04T20:08:07.491Z,16.60
2018-08-04T20:10:38.301Z,16.03
2018-08-04T20:13:07.072Z,15.53
2018-08-04T20:15:36.653Z,16.83
2018-08-04T20:18:05.332Z,15.63
2018-08-04T20:20:35.092Z,17.37
2018-08-04T20:23:03.984Z,18.70
2018-08-04T20:25:33.801Z,16.37
2018-08-04T20:28:02.596Z,16.37
2018-08-04T20:30:31.408Z,16.27
2018-08-04T20:33:00.325Z,16.10
2018-08-04T20:35:30.085Z,17.50
2018-08-04T20:37:58.676Z,17.90
2018-08-04T20:40:27.352Z,16.90
2018-08-04T20:42:59.676Z,20.77
2018-08-04T20:45:28.604Z,15.00
2018-08-04T20:47:58.352Z,14.67
2018-08-04T20:50:27.235Z,16.23
2018-08-04T20:52:56.223Z,14.97
2018-08-04T20:55:24.988Z,16.50
2018-08-04T20:57:55.854Z,15.43
2018-08-04T21:00:42.912Z,14.97
2018-08-04T21:03:13.080Z,15.57
2018-08-04T21:05:41.875Z,14.53
2018-08-04T21:08:10.792Z,16.00
2018-08-04T21:10:39.692Z,16.13
2018-08-04T21:13:09.079Z,14.53
2018-08-04T21:15:39.032Z,15.20
2018-08-04T21:18:10.036Z,15.40
2018-08-04T21:20:57.476Z,16.73
2018-08-04T21:23:26.524Z,16.57
2018-08-04T21:25:56.424Z,16.10
2018-08-04T21:28:26.388Z,15.20
2018-08-04T21:30:55.448Z,16.37
2018-08-04T21:33:24.048Z,16.37
2018-08-04T21:35:57.338Z,16.60
2018-08-04T21:38:31.484Z,16.10
2018-08-04T21:41:01.280Z,18.63
2018-08-04T21:43:35.632Z,18.07
2018-08-04T21:46:04.464Z,16.73
2018-08-04T21:48:35.376Z,18.90
2018-08-04T21:51:06.349Z,17.57
2018-08-04T21:53:36.472Z,16.90
2018-08-04T21:56:05.500Z,17.73
2018-08-04T21:58:38.200Z,17.87
2018-08-04T22:01:12.117Z,17.87
2018-08-04T22:03:42.436Z,17.73
2018-08-04T22:06:11.659Z,17.67
2018-08-04T22:08:56.096Z,17.03
2018-08-04T22:11:25.980Z,20.53
2018-08-04T22:13:55.952Z,18.60
2018-08-04T22:16:26.804Z,20.10
2018-08-04T22:18:55.879Z,19.90
2018-08-04T22:21:24.832Z,20.43
2018-08-04T22:23:54.712Z,19.77
2018-08-04T22:26:28.092Z,20.40
2018-08-04T22:28:57.059Z,20.17
2018-08-04T22:31:26.912Z,19.77
2018-08-04T22:33:55.824Z,22.43
2018-08-04T22:36:27.968Z,19.93
2018-08-04T22:38:58.787Z,19.30
2018-08-04T22:41:31.420Z,20.60
2018-08-04T22:44:04.252Z,19.33
2018-08-04T22:46:33.212Z,17.53
2018-08-04T22:49:03.053Z,20.47
2018-08-04T22:51:32.884Z,21.03
2018-08-04T22:54:01.876Z,18.97
2018-08-04T22:56:30.775Z,20.83
2018-08-04T22:59:01.721Z,20.40
2018-08-04T23:01:32.538Z,19.43
2018-08-04T23:04:02.360Z,19.60
2018-08-04T23:06:36.568Z,21.67
2018-08-04T23:09:07.695Z,20.47
2018-08-04T23:11:36.625Z,22.87
2018-08-04T23:14:07.523Z,21.17
2018-08-04T23:16:36.463Z,21.80
2018-08-04T23:19:06.451Z,20.33
2018-08-04T23:21:35.664Z,21.03
2018-08-04T23:24:05.653Z,19.40
2018-08-04T23:26:35.383Z,20.07
2018-08-04T23:29:08.243Z,20.93
2018-08-04T23:31:37.156Z,20.57
2018-08-04T23:34:06.576Z,22.10
2018-08-04T23:39:01.828Z,22.23
2018-08-04T23:41:31.681Z,20.93
2018-08-04T23:44:03.925Z,21.30
2018-08-04T23:46:34.744Z,21.50
2018-08-04T23:49:05.372Z,21.53
2018-08-04T23:51:33.879Z,21.17
2018-08-04T23:54:02.697Z,23.13
2018-08-04T23:56:33.532Z,21.93
2018-08-04T23:59:02.392Z,21.20
